Kyle-Oakley Field Information

FAA: CEY - ICAO: KCEY

Kyle-Oakley Field (Airport) Location

State Kentucky
County Calloway
City Murray
Kyle-Oakley Field (Airport) is 4 miles northwest of Murray, KY.
Latitude 36-39-52.4920N
Longitude 088-22-21.9920W
Elevation 577ft

Kyle-Oakley Field METARs

METAR KCEY 032155Z AUTO 19006KT 150V220 10SM CLR 20/09 A2994 RMK AO1
Altimeter 29.94"
Temperature 20.0°C (68.0°F)
Wind 190° at 6KT
Clouds Skies are clear.
Visibility 10.0mi
Time observed: 2021-12-03T21:55:00Z

Kyle-Oakley Field (Airport) Details

Status Operational
Activation January 1962
Ownership Public
Usage Public
Chart ST LOUIS
ATC on-site No
Beacon schedule sunset-sunrise
Beacon color clear green

Kyle-Oakley Field (Airport) Contacts

Owner MURRAY CITY-CALLOWAY CO BOARD
Owner address 544 AIRFIELD LN., MURRAY, KY 42071
Owner phone 270-489-2414
Manager CHIEF ENGINEER-MAINT
Manager address 3600 CUMBERLAND AVENUE, MIDDLESBORO, KY 40965
Manager phone 606-242-1432

Kyle-Oakley Field Radio Frequencies

Kyle-Oakley Field (Airport) Radio Frequencies

UNICOM 122.7
Common traffic advisory frequency (CTAF) 122.7